createdAt,value
2022-12-18T00:01:32.503Z,102059.53
2022-12-18T00:04:02.331Z,102053.81
2022-12-18T00:06:34.181Z,102055.22
2022-12-18T00:09:02.852Z,102057.41
2022-12-18T00:11:33.317Z,102051.03
2022-12-18T00:14:01.012Z,102062.31
2022-12-18T00:16:29.971Z,102059.94
2022-12-18T00:18:58.544Z,102058.53
2022-12-18T00:21:26.269Z,102067.97
2022-12-18T00:23:53.895Z,102063.31
2022-12-18T00:26:24.219Z,102062.63
2022-12-18T00:28:56.710Z,102057.09
2022-12-18T00:31:25.472Z,102066.00
2022-12-18T00:33:58.774Z,102076.03
2022-12-18T00:36:27.669Z,102068.75
2022-12-18T00:38:56.498Z,102081.59
2022-12-18T00:42:00.702Z,102078.81
2022-12-18T00:44:28.145Z,102075.47
2022-12-18T00:46:55.447Z,102083.63
2022-12-18T00:49:22.813Z,102085.69
2022-12-18T00:51:50.772Z,102098.00
2022-12-18T00:54:18.719Z,102091.00
2022-12-18T00:56:49.449Z,102100.44
2022-12-18T00:59:18.692Z,102101.94
2022-12-18T01:01:46.864Z,102111.72
2022-12-18T01:04:15.500Z,102102.00
2022-12-18T01:06:46.240Z,102109.09
2022-12-18T01:09:13.705Z,102109.53
2022-12-18T01:11:41.065Z,102113.84
2022-12-18T01:14:08.539Z,102121.19
2022-12-18T01:16:38.623Z,102132.47
2022-12-18T01:19:06.275Z,102122.81
2022-12-18T01:21:34.165Z,102137.13
2022-12-18T01:24:05.603Z,102140.97
2022-12-18T01:26:33.244Z,102139.97
2022-12-18T01:29:00.740Z,102152.41
2022-12-18T01:31:31.344Z,102158.91
2022-12-18T01:34:02.257Z,102157.38
2022-12-18T01:36:32.836Z,102152.41
2022-12-18T01:39:04.948Z,102158.91
2022-12-18T01:41:52.736Z,102159.25
2022-12-18T01:44:57.795Z,102155.25
2022-12-18T01:47:31.424Z,102161.78
2022-12-18T01:50:01.959Z,102156.97
2022-12-18T01:52:31.991Z,102159.97
2022-12-18T01:55:01.234Z,102160.88
2022-12-18T01:57:29.543Z,102171.34
2022-12-18T02:00:06.827Z,102178.69
2022-12-18T02:02:42.992Z,102167.88
2022-12-18T02:05:12.646Z,102169.84
2022-12-18T02:07:52.102Z,102182.00
2022-12-18T02:10:28.051Z,102182.53
2022-12-18T02:13:04.714Z,102181.78
2022-12-18T02:15:35.106Z,102186.72
2022-12-18T02:18:07.623Z,102179.91
2022-12-18T02:20:41.982Z,102185.59
2022-12-18T02:23:31.097Z,102191.31
2022-12-18T02:26:21.112Z,102190.94
2022-12-18T02:28:54.286Z,102191.25
2022-12-18T02:31:29.493Z,102187.25
2022-12-18T02:34:01.311Z,102194.50
2022-12-18T02:36:30.112Z,102193.13
2022-12-18T02:39:02.754Z,102207.94
2022-12-18T02:41:32.009Z,102208.00
2022-12-18T02:44:03.028Z,102206.38
2022-12-18T02:46:40.711Z,102223.47
2022-12-18T02:49:30.021Z,102224.59
2022-12-18T02:52:25.201Z,102230.19
2022-12-18T02:55:08.840Z,102226.75
2022-12-18T02:57:51.723Z,102225.66
2022-12-18T03:00:31.700Z,102227.81
2022-12-18T03:03:17.932Z,102231.81
2022-12-18T03:05:54.411Z,102231.06
2022-12-18T03:08:45.290Z,102233.13
2022-12-18T03:11:14.310Z,102236.97
2022-12-18T03:13:59.096Z,102228.38
2022-12-18T03:16:29.969Z,102230.19
2022-12-18T03:19:01.974Z,102223.22
2022-12-18T03:21:37.945Z,102225.34
2022-12-18T03:24:09.771Z,102226.41
2022-12-18T03:26:42.364Z,102236.22
2022-12-18T03:29:22.824Z,102234.25
2022-12-18T03:31:56.947Z,102232.56
2022-12-18T03:34:30.266Z,102233.38
2022-12-18T03:37:03.907Z,102237.47
2022-12-18T03:39:33.001Z,102236.41
2022-12-18T03:42:08.934Z,102245.22
2022-12-18T03:45:25.812Z,102242.19
2022-12-18T03:48:04.864Z,102244.91
2022-12-18T03:50:52.513Z,102253.25
2022-12-18T03:53:48.517Z,102247.03
2022-12-18T03:56:18.233Z,102246.97
2022-12-18T03:58:49.516Z,102254.81
2022-12-18T04:01:25.798Z,102256.13
2022-12-18T04:03:55.076Z,102264.72
2022-12-18T04:06:24.029Z,102261.75
2022-12-18T04:08:53.408Z,102274.69
2022-12-18T04:11:23.494Z,102278.78
2022-12-18T04:13:50.890Z,102275.50
2022-12-18T04:16:27.155Z,102278.53
2022-12-18T04:18:57.506Z,102270.09
2022-12-18T04:21:26.604Z,102284.19
2022-12-18T04:23:54.310Z,102282.72
2022-12-18T04:26:23.622Z,102284.41
2022-12-18T04:29:00.961Z,102287.13
2022-12-18T04:31:29.891Z,102285.97
2022-12-18T04:33:57.803Z,102288.34
2022-12-18T04:36:25.845Z,102299.06
2022-12-18T04:38:53.950Z,102302.59
2022-12-18T04:41:21.900Z,102299.47
2022-12-18T04:43:50.468Z,102303.78
2022-12-18T04:46:18.555Z,102306.50
2022-12-18T04:48:48.534Z,102305.66
2022-12-18T04:51:15.958Z,102308.13
2022-12-18T04:53:43.640Z,102318.81
2022-12-18T04:56:13.835Z,102322.19
2022-12-18T04:58:42.493Z,102322.13
2022-12-18T05:01:13.626Z,102323.66
2022-12-18T05:03:41.560Z,102327.75
2022-12-18T05:06:09.207Z,102322.63
2022-12-18T05:08:36.772Z,102328.91
2022-12-18T05:11:07.439Z,102325.88
2022-12-18T05:13:37.924Z,102338.00
2022-12-18T05:16:06.519Z,102333.88
2022-12-18T05:18:34.530Z,102334.88
2022-12-18T05:21:02.299Z,102341.66
2022-12-18T05:23:29.765Z,102351.50
2022-12-18T05:26:02.609Z,102352.88
2022-12-18T05:28:32.172Z,102347.38
2022-12-18T05:31:01.153Z,102344.84
2022-12-18T05:33:32.681Z,102349.44
2022-12-18T05:36:02.923Z,102357.53
2022-12-18T05:38:31.850Z,102363.47
2022-12-18T05:40:59.613Z,102370.50
2022-12-18T05:43:27.992Z,102377.78
2022-12-18T05:45:56.800Z,102375.53
2022-12-18T05:48:24.487Z,102380.66
2022-12-18T05:50:52.934Z,102389.13
2022-12-18T05:53:21.778Z,102388.31
2022-12-18T05:55:49.636Z,102384.69
2022-12-18T05:58:17.248Z,102387.94
2022-12-18T06:00:46.871Z,102394.25
2022-12-18T06:03:14.856Z,102390.19
2022-12-18T06:05:44.890Z,102405.41
2022-12-18T06:08:14.044Z,102408.19
2022-12-18T06:10:42.477Z,102423.66
2022-12-18T06:13:09.939Z,102406.00
2022-12-18T06:15:38.481Z,102423.41
2022-12-18T06:18:06.119Z,102424.47
2022-12-18T06:20:34.092Z,102415.47
2022-12-18T06:23:01.709Z,102433.63
2022-12-18T06:25:31.090Z,102434.34
2022-12-18T06:27:58.428Z,102441.63
2022-12-18T06:30:26.032Z,102444.31
2022-12-18T06:32:56.671Z,102447.38
2022-12-18T06:35:24.811Z,102437.88
2022-12-18T06:37:52.266Z,102447.06
2022-12-18T06:40:20.066Z,102444.22
2022-12-18T06:42:49.581Z,102465.09
2022-12-18T06:45:17.301Z,102462.66
2022-12-18T06:47:44.818Z,102455.97
2022-12-18T06:50:13.714Z,102469.66
2022-12-18T06:52:41.412Z,102468.59
2022-12-18T06:55:09.320Z,102459.00
2022-12-18T06:57:36.873Z,102456.09
2022-12-18T07:00:06.782Z,102479.50
2022-12-18T07:02:34.464Z,102467.34
2022-12-18T07:05:10.518Z,102468.50
2022-12-18T07:07:42.369Z,102485.59
2022-12-18T07:10:10.219Z,102489.94
2022-12-18T07:12:37.640Z,102489.72
2022-12-18T07:15:05.626Z,102491.09
2022-12-18T07:17:33.052Z,102499.91
2022-12-18T07:20:00.554Z,102496.25
2022-12-18T07:22:28.255Z,102509.88
2022-12-18T07:24:58.718Z,102514.31
2022-12-18T07:27:26.317Z,102517.84
2022-12-18T07:29:53.806Z,102504.75
2022-12-18T07:32:21.216Z,102505.06
2022-12-18T07:34:48.673Z,102519.63
2022-12-18T07:37:16.054Z,102528.63
2022-12-18T07:39:43.376Z,102520.31
2022-12-18T07:42:29.486Z,102523.94
2022-12-18T07:44:57.365Z,102531.03
2022-12-18T07:47:26.276Z,102551.16
2022-12-18T07:49:54.826Z,102548.34
2022-12-18T07:52:25.908Z,102550.13
2022-12-18T07:54:53.885Z,102561.25
2022-12-18T07:57:48.788Z,102567.09
2022-12-18T08:00:09.565Z,102579.19
2022-12-18T08:02:39.907Z,102577.81
2022-12-18T08:05:07.601Z,102580.41
2022-12-18T08:07:34.997Z,102588.97
2022-12-18T08:10:02.344Z,102583.94
2022-12-18T08:12:29.843Z,102603.59
2022-12-18T08:14:59.935Z,102592.38
2022-12-18T08:17:27.476Z,102592.75
2022-12-18T08:19:54.856Z,102590.78
2022-12-18T08:22:22.411Z,102609.88
2022-12-18T08:24:49.877Z,102623.13
2022-12-18T08:27:32.781Z,102613.88
2022-12-18T08:30:00.498Z,102619.47
2022-12-18T08:32:30.836Z,102613.06
2022-12-18T08:34:58.349Z,102631.09
2022-12-18T08:37:26.077Z,102630.66
2022-12-18T08:39:53.521Z,102629.53
2022-12-18T08:42:39.241Z,102642.59
2022-12-18T08:45:07.127Z,102643.41
2022-12-18T08:47:34.555Z,102644.97
2022-12-18T08:50:02.091Z,102643.59
2022-12-18T08:52:29.508Z,102647.69
2022-12-18T08:54:56.881Z,102651.69
2022-12-18T08:57:24.393Z,102659.19
2022-12-18T08:59:51.746Z,102649.41
2022-12-18T09:02:19.250Z,102652.28
2022-12-18T09:04:52.383Z,102656.88
2022-12-18T09:07:23.039Z,102655.72
2022-12-18T09:09:50.488Z,102668.88
2022-12-18T09:12:17.877Z,102659.81
2022-12-18T09:14:45.297Z,102670.72
2022-12-18T09:17:12.733Z,102678.44
2022-12-18T09:19:40.161Z,102671.06
2022-12-18T09:22:07.605Z,102663.13
2022-12-18T09:24:37.115Z,102660.16
2022-12-18T09:27:04.747Z,102670.75
2022-12-18T09:29:32.193Z,102679.66
2022-12-18T09:31:59.724Z,102668.59
2022-12-18T09:34:27.177Z,102662.41
2022-12-18T09:36:54.560Z,102670.97
2022-12-18T09:39:22.456Z,102667.56
2022-12-18T09:41:54.871Z,102659.34
2022-12-18T09:44:44.952Z,102658.91
2022-12-18T09:47:24.094Z,102658.44
2022-12-18T09:49:56.160Z,102651.22
2022-12-18T09:52:46.207Z,102663.13
2022-12-18T09:55:25.443Z,102660.69
2022-12-18T09:57:59.887Z,102649.78
2022-12-18T10:00:27.284Z,102652.38
2022-12-18T10:03:02.563Z,102645.38
2022-12-18T10:05:38.600Z,102650.78
2022-12-18T10:08:30.779Z,102654.19
2022-12-18T10:11:20.945Z,102628.13
2022-12-18T10:13:57.510Z,102638.72
2022-12-18T10:16:44.103Z,102636.69
2022-12-18T10:19:27.112Z,102633.41
2022-12-18T10:22:10.437Z,102640.72
2022-12-18T10:24:49.230Z,102634.06
2022-12-18T10:27:22.668Z,102634.88
2022-12-18T10:29:50.324Z,102640.22
2022-12-18T10:32:23.585Z,102645.19
2022-12-18T10:34:59.798Z,102649.22
2022-12-18T10:37:31.525Z,102653.81
2022-12-18T10:40:22.615Z,102648.28
2022-12-18T10:43:14.497Z,102653.13
2022-12-18T10:45:43.117Z,102652.38
2022-12-18T10:48:23.552Z,102644.50
2022-12-18T10:51:12.906Z,102649.16
2022-12-18T10:53:43.879Z,102652.63
2022-12-18T10:56:11.917Z,102654.91
2022-12-18T10:58:40.796Z,102655.72
2022-12-18T11:01:21.207Z,102647.84
2022-12-18T11:04:00.309Z,102652.25
2022-12-18T11:06:30.354Z,102638.72
2022-12-18T11:09:20.617Z,102637.75
2022-12-18T11:11:54.511Z,102628.56
2022-12-18T11:14:46.892Z,102624.47
2022-12-18T11:17:28.757Z,102620.63
2022-12-18T11:20:10.404Z,102621.28
2022-12-18T11:22:39.321Z,102627.38
2022-12-18T11:25:33.184Z,102624.69
2022-12-18T11:28:25.964Z,102620.25
2022-12-18T11:31:18.279Z,102621.97
2022-12-18T11:36:49.604Z,102612.81
2022-12-18T11:39:23.640Z,102612.47
2022-12-18T11:42:12.766Z,102607.31
2022-12-18T11:44:52.491Z,102603.06
2022-12-18T11:47:31.900Z,102593.59
2022-12-18T11:50:02.448Z,102599.56
2022-12-18T11:52:40.052Z,102602.28
2022-12-18T11:55:17.089Z,102603.38
2022-12-18T11:57:52.532Z,102602.03
2022-12-18T12:00:20.907Z,102603.13
2022-12-18T12:02:51.334Z,102602.06
2022-12-18T12:05:30.683Z,102596.34
2022-12-18T12:08:07.990Z,102591.72
2022-12-18T12:10:41.410Z,102594.75
2022-12-18T12:13:14.368Z,102605.88
2022-12-18T12:16:01.618Z,102604.25
2022-12-18T12:18:29.033Z,102599.06
2022-12-18T12:21:11.641Z,102593.03
2022-12-18T12:23:45.713Z,102593.13
2022-12-18T12:26:25.720Z,102586.00
2022-12-18T12:28:59.117Z,102589.78
2022-12-18T12:32:05.212Z,102592.50
2022-12-18T12:34:36.009Z,102585.19
2022-12-18T12:37:15.947Z,102594.44
2022-12-18T12:39:47.081Z,102589.78
2022-12-18T12:42:53.316Z,102588.69
2022-12-18T12:45:49.835Z,102584.63
2022-12-18T12:48:25.216Z,102583.28
2022-12-18T12:50:56.155Z,102592.81
2022-12-18T12:53:30.263Z,102583.28
2022-12-18T12:55:58.554Z,102579.44
2022-12-18T12:59:02.030Z,102580.53
2022-12-18T13:01:38.703Z,102582.16
2022-12-18T13:04:27.832Z,102579.16
2022-12-18T13:07:18.255Z,102574.22
2022-12-18T13:10:20.701Z,102574.75
2022-12-18T13:12:57.785Z,102573.88
2022-12-18T13:15:42.609Z,102567.97
2022-12-18T13:18:10.601Z,102564.13
2022-12-18T13:21:01.549Z,102558.09
2022-12-18T13:23:31.026Z,102568.44
2022-12-18T13:26:07.490Z,102557.28
2022-12-18T13:28:34.952Z,102562.91
2022-12-18T13:31:03.159Z,102558.28
2022-12-18T13:33:30.534Z,102553.94
2022-12-18T13:36:19.368Z,102559.09
2022-12-18T13:38:47.018Z,102564.25
2022-12-18T13:41:27.422Z,102560.94
2022-12-18T13:43:59.010Z,102561.44
2022-12-18T13:46:52.964Z,102566.53
2022-12-18T13:49:38.995Z,102564.91
2022-12-18T13:52:17.639Z,102562.06
2022-12-18T13:54:51.690Z,102570.81
2022-12-18T13:57:34.802Z,102566.47
2022-12-18T14:00:29.783Z,102562.66
2022-12-18T14:02:59.365Z,102571.34
2022-12-18T14:05:31.019Z,102570.34
2022-12-18T14:08:06.034Z,102559.69
2022-12-18T14:10:45.516Z,102559.66
2022-12-18T14:13:31.324Z,102564.88
2022-12-18T14:16:04.442Z,102566.75
2022-12-18T14:18:45.063Z,102564.19
2022-12-18T14:21:33.539Z,102558.31
2022-12-18T14:24:19.732Z,102565.59
2022-12-18T14:26:50.388Z,102567.50
2022-12-18T14:29:25.464Z,102563.13
2022-12-18T14:32:19.490Z,102557.34
2022-12-18T14:34:49.128Z,102556.72
2022-12-18T14:37:25.470Z,102560.56
2022-12-18T14:39:56.307Z,102567.84
2022-12-18T14:42:23.827Z,102566.38
2022-12-18T14:45:12.942Z,102556.53
2022-12-18T14:47:38.872Z,102558.16
2022-12-18T14:50:14.872Z,102570.25
2022-12-18T14:52:42.664Z,102573.47
2022-12-18T14:55:18.220Z,102573.28
2022-12-18T14:57:46.293Z,102577.34
2022-12-18T15:00:19.703Z,102581.59
2022-12-18T15:02:51.955Z,102588.56
2022-12-18T15:05:30.823Z,102591.47
2022-12-18T15:08:00.749Z,102599.88
2022-12-18T15:10:32.576Z,102594.41
2022-12-18T15:13:01.493Z,102600.84
2022-12-18T15:15:35.370Z,102606.75
2022-12-18T15:18:08.944Z,102607.78
2022-12-18T15:20:54.155Z,102609.09
2022-12-18T15:23:26.360Z,102598.47
2022-12-18T15:26:05.042Z,102604.44
2022-12-18T15:28:59.096Z,102608.69
2022-12-18T15:31:37.430Z,102609.94
2022-12-18T15:34:21.613Z,102620.63
2022-12-18T15:36:49.162Z,102627.06
2022-12-18T15:39:16.630Z,102624.91
2022-12-18T15:42:05.552Z,102623.47
2022-12-18T15:44:33.577Z,102634.50
2022-12-18T15:47:00.960Z,102636.97
2022-12-18T15:49:28.468Z,102642.69
2022-12-18T15:51:59.271Z,102652.22
2022-12-18T15:54:45.906Z,102642.28
2022-12-18T15:57:25.721Z,102650.56
2022-12-18T15:59:56.797Z,102652.59
2022-12-18T16:02:25.383Z,102653.94
2022-12-18T16:04:53.787Z,102655.00
2022-12-18T16:07:25.130Z,102653.44
2022-12-18T16:09:53.213Z,102650.22
2022-12-18T16:12:23.832Z,102652.59
2022-12-18T16:14:51.217Z,102650.34
2022-12-18T16:17:18.828Z,102659.34
2022-12-18T16:19:46.488Z,102656.88
2022-12-18T16:22:28.931Z,102658.25
2022-12-18T16:24:57.724Z,102667.03
2022-12-18T16:27:25.895Z,102668.97
2022-12-18T16:29:53.220Z,102663.25
2022-12-18T16:32:24.822Z,102668.16
2022-12-18T16:34:52.258Z,102672.44
2022-12-18T16:37:20.027Z,102670.69
2022-12-18T16:39:47.387Z,102667.44
2022-12-18T16:42:19.771Z,102670.25
2022-12-18T16:44:48.592Z,102670.63
2022-12-18T16:47:16.823Z,102673.69
2022-12-18T16:49:47.536Z,102674.59
2022-12-18T16:52:15.309Z,102672.56
2022-12-18T16:54:42.641Z,102673.63
2022-12-18T16:57:13.541Z,102675.25
2022-12-18T16:59:40.944Z,102677.97
2022-12-18T17:02:27.664Z,102672.94
2022-12-18T17:04:57.370Z,102675.69
2022-12-18T17:07:28.515Z,102674.06
2022-12-18T17:09:59.246Z,102667.63
2022-12-18T17:12:27.357Z,102681.38
2022-12-18T17:14:57.538Z,102679.59
2022-12-18T17:17:26.029Z,102679.94
2022-12-18T17:19:56.256Z,102687.22
2022-12-18T17:22:23.849Z,102683.47
2022-12-18T17:24:51.223Z,102680.88
2022-12-18T17:27:18.562Z,102682.59
2022-12-18T17:29:48.294Z,102682.25
2022-12-18T17:32:17.495Z,102687.56
2022-12-18T17:34:44.884Z,102680.41
2022-12-18T17:37:12.301Z,102694.63
2022-12-18T17:39:40.125Z,102691.09
2022-12-18T17:42:08.600Z,102699.44
2022-12-18T17:44:38.159Z,102695.69
2022-12-18T17:47:06.143Z,102697.13
2022-12-18T17:49:33.604Z,102699.59
2022-12-18T17:52:01.021Z,102702.38
2022-12-18T17:54:28.449Z,102696.88
2022-12-18T17:56:55.794Z,102695.94
2022-12-18T17:59:24.009Z,102692.19
2022-12-18T18:01:51.609Z,102692.78
2022-12-18T18:04:19.592Z,102697.69
2022-12-18T18:06:47.115Z,102705.31
2022-12-18T18:09:16.685Z,102706.22
2022-12-18T18:12:04.465Z,102708.25
2022-12-18T18:14:33.020Z,102708.81
2022-12-18T18:17:04.713Z,102713.19
2022-12-18T18:19:34.069Z,102717.72
2022-12-18T18:22:03.104Z,102720.53
2022-12-18T18:24:33.407Z,102720.72
2022-12-18T18:27:00.976Z,102714.53
2022-12-18T18:29:32.215Z,102717.47
2022-12-18T18:31:59.804Z,102719.56
2022-12-18T18:34:30.253Z,102714.41
2022-12-18T18:37:00.820Z,102711.91
2022-12-18T18:39:28.501Z,102710.59
2022-12-18T18:41:56.059Z,102708.72
2022-12-18T18:44:32.761Z,102701.00
2022-12-18T18:47:00.127Z,102700.19
2022-12-18T18:49:28.690Z,102708.72
2022-12-18T18:51:57.791Z,102695.94
2022-12-18T18:54:26.230Z,102709.59
2022-12-18T18:57:19.565Z,102706.69
2022-12-18T18:59:41.662Z,102707.34
2022-12-18T19:02:14.275Z,102716.63
2022-12-18T19:04:46.649Z,102710.88
2022-12-18T19:07:29.664Z,102716.13
2022-12-18T19:10:04.508Z,102715.84
2022-12-18T19:12:52.969Z,102714.97
2022-12-18T19:15:22.439Z,102724.78
2022-12-18T19:17:50.014Z,102728.72
2022-12-18T19:20:18.171Z,102730.38
2022-12-18T19:22:52.002Z,102726.28
2022-12-18T19:25:40.043Z,102719.16
2022-12-18T19:28:18.965Z,102727.31
2022-12-18T19:30:50.613Z,102723.09
2022-12-18T19:33:41.623Z,102718.28
2022-12-18T19:36:11.914Z,102725.31
2022-12-18T19:38:40.176Z,102725.88
2022-12-18T19:41:11.613Z,102732.75
2022-12-18T19:43:40.655Z,102727.72
2022-12-18T19:46:11.842Z,102737.84
2022-12-18T19:48:39.596Z,102729.13
2022-12-18T19:51:19.207Z,102726.34
2022-12-18T19:53:54.956Z,102725.91
2022-12-18T19:56:27.225Z,102734.81
2022-12-18T19:58:55.431Z,102742.72
2022-12-18T20:01:24.439Z,102734.69
2022-12-18T20:03:56.012Z,102744.69
2022-12-18T20:06:32.501Z,102757.56
2022-12-18T20:09:07.541Z,102750.00
2022-12-18T20:11:40.959Z,102747.06
2022-12-18T20:14:14.475Z,102752.50
2022-12-18T20:16:45.903Z,102752.78
2022-12-18T20:19:14.469Z,102764.50
2022-12-18T20:21:43.318Z,102768.16
2022-12-18T20:24:10.741Z,102779.59
2022-12-18T20:26:38.187Z,102783.31
2022-12-18T20:29:05.541Z,102787.50
2022-12-18T20:31:33.027Z,102786.94
2022-12-18T20:34:02.792Z,102787.72
2022-12-18T20:36:33.082Z,102782.91
2022-12-18T20:39:05.186Z,102773.09
2022-12-18T20:41:38.241Z,102780.16
2022-12-18T20:44:23.699Z,102787.84
2022-12-18T20:46:54.230Z,102768.09
2022-12-18T20:49:26.004Z,102770.81
2022-12-18T20:51:56.135Z,102774.53
2022-12-18T20:54:25.720Z,102784.44
2022-12-18T20:56:53.616Z,102778.41
2022-12-18T20:59:23.099Z,102789.63
2022-12-18T21:01:52.086Z,102793.91
2022-12-18T21:04:23.298Z,102796.97
2022-12-18T21:06:55.587Z,102790.00
2022-12-18T21:09:37.587Z,102797.09
2022-12-18T21:12:29.392Z,102797.16
2022-12-18T21:15:02.515Z,102808.31
2022-12-18T21:17:31.546Z,102813.09
2022-12-18T21:20:05.188Z,102816.63
2022-12-18T21:22:33.350Z,102816.00
2022-12-18T21:25:04.548Z,102819.31
2022-12-18T21:27:31.993Z,102811.06
2022-12-18T21:29:59.547Z,102806.75
2022-12-18T21:32:27.106Z,102801.75
2022-12-18T21:34:59.309Z,102806.94
2022-12-18T21:37:26.722Z,102803.03
2022-12-18T21:39:54.119Z,102807.56
2022-12-18T21:42:44.295Z,102808.78
2022-12-18T21:45:12.226Z,102811.69
2022-12-18T21:47:39.806Z,102808.81
2022-12-18T21:50:09.762Z,102807.75
2022-12-18T21:52:39.261Z,102808.81
2022-12-18T21:55:09.977Z,102804.88
2022-12-18T21:57:39.594Z,102799.94
2022-12-18T22:00:10.327Z,102804.47
2022-12-18T22:02:41.759Z,102803.22
2022-12-18T22:05:09.676Z,102802.19
2022-12-18T22:07:38.505Z,102799.31
2022-12-18T22:10:07.411Z,102794.75
2022-12-18T22:12:43.668Z,102796.84
2022-12-18T22:15:21.081Z,102803.03
2022-12-18T22:17:51.214Z,102797.88
2022-12-18T22:20:24.688Z,102801.38
2022-12-18T22:22:54.269Z,102807.78
2022-12-18T22:25:21.722Z,102802.41
2022-12-18T22:28:07.776Z,102803.25
2022-12-18T22:30:35.528Z,102812.28
2022-12-18T22:33:03.648Z,102813.75
2022-12-18T22:35:31.150Z,102810.88
2022-12-18T22:37:59.856Z,102803.03
2022-12-18T22:40:28.112Z,102801.59
2022-12-18T22:42:56.238Z,102799.50
2022-12-18T22:45:25.777Z,102801.38
2022-12-18T22:47:53.554Z,102808.19
2022-12-18T22:50:21.153Z,102806.13
2022-12-18T22:52:48.562Z,102803.03
2022-12-18T22:55:15.964Z,102809.00
2022-12-18T22:57:43.759Z,102798.69
2022-12-18T23:00:23.892Z,102808.38
2022-12-18T23:02:59.160Z,102793.13
2022-12-18T23:05:28.685Z,102779.94
2022-12-18T23:07:56.241Z,102776.63
2022-12-18T23:10:23.559Z,102779.50
2022-12-18T23:12:51.301Z,102790.44
2022-12-18T23:15:22.871Z,102788.16
2022-12-18T23:18:02.521Z,102778.66
2022-12-18T23:20:29.981Z,102776.38
2022-12-18T23:22:57.366Z,102786.47
2022-12-18T23:25:27.596Z,102792.03
2022-12-18T23:27:55.035Z,102788.78
2022-12-18T23:30:22.375Z,102789.16
2022-12-18T23:32:50.140Z,102790.00
2022-12-18T23:35:17.544Z,102790.00
2022-12-18T23:37:58.562Z,102782.38
2022-12-18T23:40:26.767Z,102783.81
2022-12-18T23:42:54.135Z,102794.75
2022-12-18T23:45:21.699Z,102800.09
2022-12-18T23:47:50.951Z,102800.50
2022-12-18T23:50:18.946Z,102795.38
2022-12-18T23:52:49.562Z,102799.69
2022-12-18T23:55:17.018Z,102787.53
2022-12-18T23:57:44.566Z,102783.81
